KDVTKRHV

Guest
Details From KDVT - PHOENIX DEER VALLEY
To KRHV - Reid Hillview Of Santa Clara Co
Flight Number -
Tags decoded
Created
Modified
Stats Distance 566 nm / 1,047 km
Max Altitude 0 ft / 0 m
Waypoints 6
Social Downloads 0
Likes 0
Share VATSIM

Download

Looking for another format? Having issues loading an existing format? Contact us
Advertisement - Login to hide

Notes

Requested: KDVT AVONA PSP ROM GILRO KRHV

Route

KDVT AVONA PSP ROM GILRO KRHV

ID Type Via Altitude Latitude Longitude Leg Dist Tot Dist Heading (true) Name
O KDVT APT - 0 ft / 0 m 33.68860˚ -112.08244˚ - 0 nm - PHOENIX DEER VALLEY
AVONA FIX - 0 ft / 0 m 33.44223˚ -112.32565˚ 19 nm 19 nm 220° / 219° -
PSP VOR - 0 ft / 0 m 33.87003˚ -116.42978˚ 206 nm 225 nm 278° / 276° PALM SPRINGS VORTAC
ROM VOR - 0 ft / 0 m 36.14039˚ -120.66492˚ 248 nm 474 nm 304° / 302° PRIEST VOR
GILRO FIX - 0 ft / 0 m 37.04628˚ -121.56854˚ 69 nm 544 nm 322° / 321° -
O KRHV APT - 0 ft / 0 m 37.33287˚ -121.81980˚ 20 nm 565 nm 325° / 325° Reid Hillview Of Santa Clara Co

Altitude Profile

Advertisement - Login to hide

Weather


0- 5 10 15 20 25 30 35+ Temperature / ° C

Clouds and Precipitation
Forecast for 2018-05-20 18:00 UTC. Updated 5 hours ago

Ground ~20,000 ft ~40,000 ft Winds

KDVT

Details ICAO KDVT (DVT)
Name PHOENIX DEER VALLEY
Region United States
Timezone America/Phoenix (UTC-7.0)
Stats Elevation 1,478 ft / 450 m (AMSL)
Location 33.688604° -112.082441°
Runways 2
Magnetic Variation 10.336° E

METAR

KDVT 202153Z AUTO 22007G18KT 10SM CLR 33/M08 A2977 RMK AO2 WSHFT 2101 SLP058 T03331083

Decode

TAF

Not found

Departure Runways

ID Width Length Bearing (true) Bearing (mag) Surface Threshold Offset Overrun Length
07L 75 ft / 23 m 4,491 ft / 1,369 m 86.00° 75.66° Asphalt 0 ft / 0 m 0 ft / 0 m
07R 100 ft / 30 m 8,192 ft / 2,497 m 85.98° 75.64° Asphalt 897 ft / 273 m 154 ft / 47 m
25L 100 ft / 30 m 8,192 ft / 2,497 m 266.00° 255.66° Asphalt 930 ft / 283 m 140 ft / 43 m
25R 75 ft / 23 m 4,491 ft / 1,369 m 266.01° 255.67° Asphalt 0 ft / 0 m 0 ft / 0 m

KRHV

Details ICAO KRHV
Name Reid Hillview Of Santa Clara Co
Region United States
Timezone America/Los_Angeles (UTC-7.0)
Stats Elevation 133 ft / 41 m (AMSL)
Location 37.332871° -121.819797°
Runways 2
Magnetic Variation 13.275° E

METAR

KRHV 202147Z 35014KT 10SM SCT050 BKN180 20/08 A2995

Decode

TAF

Not found

Destination Runways

ID Width Length Bearing (true) Bearing (mag) Surface Threshold Offset Overrun Length
13L 75 ft / 23 m 3,102 ft / 946 m 142.99° 129.72° Asphalt 499 ft / 152 m 0 ft / 0 m
13R 75 ft / 23 m 3,100 ft / 945 m 142.98° 129.71° Asphalt 499 ft / 152 m 0 ft / 0 m
31L 75 ft / 23 m 3,100 ft / 945 m 322.98° 309.71° Asphalt 409 ft / 125 m 0 ft / 0 m
31R 75 ft / 23 m 3,102 ft / 946 m 322.99° 309.72° Asphalt 410 ft / 125 m 0 ft / 0 m

Popular Alternatives